Time;durP1;ratioP1;P1;durP2;ratioP2;P2;SDS_P1;SDS_P2;PMS_P1;PMS_P2;Temp;Humidity;BMP_temperature;BMP_pressure;BME280_temperature;BME280_humidity;BME280_pressure;Samples;Min_cycle;Max_cycle;Signal;HPM_P1;HPM_P2
2023/02/14 00:01:36;;;;;;;95.53;49.67;;;;;;;0.29;100.00;101991.63;5006157;28;20542;-77
2023/02/14 00:04:03;;;;;;;89.55;48.42;;;;;;;-0.51;100.00;101898.53;4992940;28;20054;-77
2023/02/14 00:06:34;;;;;;;87.80;49.55;;;;;;;-0.44;100.00;101852.63;4982456;28;20537;-76
2023/02/14 00:09:02;;;;;;;88.35;51.80;;;;;;;0.20;100.00;101997.06;4982301;28;20849;-75
2023/02/14 00:11:28;;;;;;;101.55;55.00;;;;;;;0.17;100.00;101973.66;4985370;28;20034;-76
2023/02/14 00:16:38;;;;;;;89.40;51.42;;;;;;;0.04;100.00;101961.59;4979465;28;20509;-77
2023/02/14 00:19:04;;;;;;;93.30;47.15;;;;;;;-0.92;100.00;101832.13;4984584;28;20050;-76
2023/02/14 00:21:37;;;;;;;87.00;49.67;;;;;;;-1.29;100.00;101798.66;4982508;28;20870;-78
2023/02/14 00:24:10;;;;;;;88.47;48.35;;;;;;;-0.69;100.00;101864.63;4984163;28;20066;-76
2023/02/14 00:26:39;;;;;;;79.60;44.58;;;;;;;-1.07;100.00;101786.50;4985422;28;20494;-78
2023/02/14 00:29:17;;;;;;;95.88;49.42;;;;;;;-0.86;100.00;101796.50;4990822;28;20486;-75
2023/02/14 00:31:44;;;;;;;86.78;47.50;;;;;;;-0.79;100.00;101802.97;4986613;28;20194;-77
2023/02/14 00:34:10;;;;;;;82.13;45.85;;;;;;;-0.62;100.00;101828.19;4994251;28;20172;-76
2023/02/14 00:36:36;;;;;;;88.00;50.60;;;;;;;-0.66;100.00;101811.63;4990922;28;20042;-76
2023/02/14 00:39:04;;;;;;;104.30;53.67;;;;;;;-0.11;100.00;101883.16;4988993;28;20124;-79
2023/02/14 00:41:29;;;;;;;88.25;47.35;;;;;;;-0.62;100.00;101799.81;4995876;28;20038;-75
2023/02/14 00:43:55;;;;;;;98.35;52.17;;;;;;;-0.75;100.00;101786.88;5006471;28;20120;-76
2023/02/14 00:46:22;;;;;;;81.82;46.08;;;;;;;0.07;100.00;101870.56;4994631;28;20103;-75
2023/02/14 00:48:47;;;;;;;99.15;50.83;;;;;;;0.05;100.00;101854.09;4985956;28;20050;-75
2023/02/14 00:51:13;;;;;;;99.05;50.08;;;;;;;0.06;100.00;101913.56;4989083;28;20046;-76
2023/02/14 00:53:39;;;;;;;95.53;53.33;;;;;;;0.01;100.00;101875.34;4983028;28;20394;-76
2023/02/14 00:56:06;;;;;;;87.50;47.92;;;;;;;0.15;100.00;101841.91;5004392;28;20417;-77
2023/02/14 00:58:31;;;;;;;84.30;47.63;;;;;;;0.15;100.00;101836.75;5011070;28;20064;-76
2023/02/14 01:00:57;;;;;;;87.70;49.15;;;;;;;-0.55;100.00;101747.88;4995608;28;20446;-75
2023/02/14 01:03:23;;;;;;;101.25;51.83;;;;;;;0.31;100.00;101894.53;4989639;28;20065;-76
2023/02/14 01:05:49;;;;;;;92.43;50.83;;;;;;;0.34;100.00;101900.78;4987254;28;20046;-76
2023/02/14 01:08:14;;;;;;;89.03;51.97;;;;;;;0.17;100.00;101884.19;4991729;28;20057;-75
2023/02/14 01:10:40;;;;;;;84.70;48.80;;;;;;;-0.13;100.00;101839.19;4991824;28;20043;-76
2023/02/14 01:13:06;;;;;;;77.60;47.80;;;;;;;-0.63;100.00;101754.25;4991396;28;20134;-77
2023/02/14 01:15:32;;;;;;;171.70;72.65;;;;;;;-0.09;100.00;101909.97;4997376;28;20045;-77
2023/02/14 01:17:59;;;;;;;180.93;84.30;;;;;;;0.20;100.00;101891.25;4986919;28;20046;-77
2023/02/14 01:20:25;;;;;;;158.60;74.03;;;;;;;-0.03;100.00;101862.22;4996243;28;20416;-76
2023/02/14 01:22:50;;;;;;;112.28;59.60;;;;;;;-0.96;100.00;101748.59;4991343;28;20030;-76
2023/02/14 01:25:16;;;;;;;110.47;57.45;;;;;;;-1.09;100.00;101697.91;4994189;28;20037;-77
2023/02/14 01:27:41;;;;;;;134.52;61.55;;;;;;;-0.70;100.00;101734.00;4992668;28;20104;-76
2023/02/14 01:30:07;;;;;;;147.40;69.22;;;;;;;-1.00;100.00;101666.75;4996620;28;20550;-75
2023/02/14 01:32:33;;;;;;;150.93;70.80;;;;;;;-0.05;100.00;101842.28;4990234;28;20145;-75
2023/02/14 01:34:59;;;;;;;110.28;58.97;;;;;;;-0.23;100.00;101840.28;5012775;28;20509;-75
2023/02/14 01:37:25;;;;;;;124.50;57.33;;;;;;;-1.36;100.00;101673.78;5001879;28;20050;-74
2023/02/14 01:39:50;;;;;;;147.45;65.45;;;;;;;-0.34;100.00;101832.63;5010205;28;20042;-75
2023/02/14 01:42:16;;;;;;;135.80;71.53;;;;;;;-1.01;100.00;101708.72;5010748;28;20046;-77
2023/02/14 01:44:44;;;;;;;124.38;67.22;;;;;;;-1.11;100.00;101657.41;5004904;28;20054;-76
2023/02/14 01:47:10;;;;;;;114.70;55.75;;;;;;;-0.32;100.00;101829.34;4990536;28;20061;-77
2023/02/14 01:50:08;;;;;;;138.32;68.40;;;;;;;-0.13;100.00;101852.09;4981948;28;20042;-75
2023/02/14 01:52:39;;;;;;;123.15;60.75;;;;;;;-0.39;100.00;101803.94;4990000;28;20056;-75
2023/02/14 01:55:15;;;;;;;122.93;60.53;;;;;;;-1.14;100.00;101804.88;4985381;28;20046;-77
2023/02/14 01:57:49;;;;;;;133.18;63.75;;;;;;;-0.48;100.00;101821.38;4979992;28;20474;-75
2023/02/14 02:03:01;;;;;;;97.30;55.08;;;;;;;-1.14;100.00;101672.66;4994216;28;20116;-78
2023/02/14 02:05:27;;;;;;;95.22;55.72;;;;;;;-0.68;100.00;101771.97;4992365;28;20122;-76
2023/02/14 02:07:56;;;;;;;106.00;56.45;;;;;;;-0.62;100.00;101747.38;4995638;28;20488;-77
2023/02/14 02:10:22;;;;;;;110.65;57.08;;;;;;;-0.97;100.00;101767.41;5003889;28;20046;-75
2023/02/14 02:12:51;;;;;;;116.85;58.55;;;;;;;-0.60;100.00;101782.78;5009110;28;20041;-75
2023/02/14 02:15:17;;;;;;;115.28;56.85;;;;;;;-1.23;100.00;101672.03;5009780;28;20487;-75
2023/02/14 02:17:57;;;;;;;128.20;65.20;;;;;;;-0.78;100.00;101761.81;5006861;28;20045;-77
2023/02/14 02:21:00;;;;;;;120.47;62.50;;;;;;;-0.41;100.00;101732.44;5009564;28;20049;-77
2023/02/14 02:23:34;;;;;;;154.57;68.50;;;;;;;-0.44;100.00;101748.63;5007425;28;20512;-74
2023/02/14 02:26:06;;;;;;;116.15;62.55;;;;;;;-0.40;100.00;101754.84;5010188;28;20029;-77
2023/02/14 02:28:40;;;;;;;134.80;64.30;;;;;;;-0.56;100.00;101758.09;5004808;28;20141;-77
2023/02/14 02:31:36;;;;;;;125.63;65.03;;;;;;;-1.45;100.00;101593.34;5004806;28;20046;-76
2023/02/14 02:34:40;;;;;;;152.82;68.57;;;;;;;-0.50;100.00;101740.47;4993355;28;20042;-74
2023/02/14 02:37:11;;;;;;;136.32;63.47;;;;;;;-0.64;100.00;101742.13;4979199;28;20162;-77
2023/02/14 02:39:59;;;;;;;184.90;79.10;;;;;;;-0.59;100.00;101745.00;4987486;28;20527;-77
2023/02/14 02:42:59;;;;;;;172.02;82.22;;;;;;;-0.60;100.00;101769.00;4986832;28;20081;-74
2023/02/14 02:45:25;;;;;;;160.15;74.25;;;;;;;-1.09;100.00;101759.72;4983209;28;20179;-76
2023/02/14 02:48:02;;;;;;;176.13;72.97;;;;;;;-1.15;100.00;101749.03;4985846;28;20087;-75
2023/02/14 02:53:29;;;;;;;147.63;68.80;;;;;;;-1.51;100.00;101613.53;4987683;28;20053;-73
2023/02/14 02:59:05;;;;;;;107.25;58.15;;;;;;;-1.76;100.00;101587.78;4988332;28;20150;-76
2023/02/14 03:01:38;;;;;;;108.75;60.03;;;;;;;-0.88;100.00;101765.47;5002401;28;20061;-75
2023/02/14 03:06:55;;;;;;;120.30;63.35;;;;;;;-1.59;100.00;101592.44;4993733;28;20451;-76
2023/02/14 03:09:26;;;;;;;121.53;57.13;;;;;;;-0.70;100.00;101745.19;4989043;28;20510;-76
2023/02/14 03:12:20;;;;;;;105.38;59.40;;;;;;;-0.68;100.00;101727.25;4986558;28;20061;-77
2023/02/14 03:14:55;;;;;;;126.30;63.75;;;;;;;-1.51;100.00;101591.25;4984576;28;20148;-75
2023/02/14 03:17:37;;;;;;;129.00;65.72;;;;;;;-0.86;100.00;101712.34;4986064;28;20058;-78
2023/02/14 03:20:35;;;;;;;121.93;60.80;;;;;;;-0.76;100.00;101744.78;5003496;28;20064;-76
2023/02/14 03:23:23;;;;;;;108.63;58.45;;;;;;;-0.99;100.00;101743.22;5004733;28;20066;-75
2023/02/14 03:26:03;;;;;;;108.88;57.30;;;;;;;-1.82;100.00;101592.53;4986215;28;20093;-75
2023/02/14 03:28:44;;;;;;;121.05;58.63;;;;;;;-1.08;100.00;101730.63;5002070;28;20053;-76
2023/02/14 03:31:27;;;;;;;109.78;55.17;;;;;;;-1.02;100.00;101722.41;5004379;28;20050;-77
2023/02/14 03:34:13;;;;;;;93.63;53.10;;;;;;;-0.96;100.00;101709.97;4994888;28;20052;-75
2023/02/14 03:36:38;;;;;;;112.72;55.35;;;;;;;-0.74;100.00;101711.38;4987287;28;20057;-76
2023/02/14 03:39:21;;;;;;;99.50;49.95;;;;;;;-0.98;100.00;101698.66;4987525;28;20054;-75
2023/02/14 03:42:04;;;;;;;87.43;51.75;;;;;;;-1.50;100.00;101597.28;4994166;28;21047;-77
2023/02/14 03:44:33;;;;;;;91.35;48.38;;;;;;;-1.78;100.00;101586.78;4999252;28;20030;-76
2023/02/14 03:47:05;;;;;;;98.68;49.45;;;;;;;-1.03;100.00;101650.19;5004010;28;20060;-76
2023/02/14 03:49:34;;;;;;;89.97;48.42;;;;;;;-1.47;100.00;101586.31;4987748;28;20081;-76
2023/02/14 03:52:02;;;;;;;100.25;53.33;;;;;;;-1.27;100.00;101578.22;4986047;28;20101;-76
2023/02/14 03:54:29;;;;;;;92.18;47.15;;;;;;;-0.43;100.00;101691.97;4988683;28;20088;-76
2023/02/14 03:57:04;;;;;;;82.10;50.05;;;;;;;-1.57;100.00;101536.81;4989694;28;20057;-76
2023/02/14 03:59:30;;;;;;;93.70;50.65;;;;;;;-0.92;100.00;101662.97;4978930;28;20522;-76
2023/02/14 04:02:05;;;;;;;82.93;48.85;;;;;;;-0.84;100.00;101666.09;4988885;28;20036;-76
2023/02/14 04:04:34;;;;;;;99.28;48.25;;;;;;;-1.56;100.00;101541.16;5005865;28;20397;-76
2023/02/14 04:07:08;;;;;;;87.20;49.33;;;;;;;-1.37;100.00;101573.28;4994750;28;20046;-76
2023/02/14 04:09:34;;;;;;;89.22;50.75;;;;;;;-0.67;100.00;101696.44;4988539;28;20106;-76
2023/02/14 04:11:59;;;;;;;96.88;53.20;;;;;;;-0.68;100.00;101693.72;4985414;28;20058;-76
2023/02/14 04:14:28;;;;;;;94.50;54.53;;;;;;;-1.82;100.00;101551.38;4987527;28;20459;-76
2023/02/14 04:19:38;;;;;;;89.82;50.25;;;;;;;-1.14;100.00;101703.56;4988178;28;20501;-76
2023/02/14 04:22:03;;;;;;;86.72;45.60;;;;;;;-1.76;100.00;101592.94;4995618;28;20038;-75
2023/02/14 04:24:29;;;;;;;103.03;57.17;;;;;;;-0.84;100.00;101686.69;4991613;28;20086;-75
2023/02/14 04:27:08;;;;;;;108.53;56.20;;;;;;;-1.33;100.00;101567.53;4999002;28;20038;-75
2023/02/14 04:29:47;;;;;;;95.03;52.20;;;;;;;-0.73;100.00;101680.53;5000768;28;20034;-79
2023/02/14 04:32:19;;;;;;;104.22;52.40;;;;;;;-1.71;100.00;101543.59;5004660;28;20038;-76
2023/02/14 04:34:47;;;;;;;116.85;53.63;;;;;;;-0.90;100.00;101704.31;5004586;28;20042;-76
2023/02/14 04:37:15;;;;;;;107.72;55.88;;;;;;;-1.03;100.00;101674.28;4992901;28;20054;-77
2023/02/14 04:39:40;;;;;;;91.78;50.20;;;;;;;-1.02;100.00;101673.47;4986636;28;20052;-76
2023/02/14 04:42:06;;;;;;;101.70;55.42;;;;;;;-0.86;100.00;101706.31;4987917;28;20090;-77
2023/02/14 04:44:33;;;;;;;95.95;53.63;;;;;;;-1.08;100.00;101725.47;4986279;28;20095;-77
2023/02/14 04:46:59;;;;;;;115.05;64.43;;;;;;;-2.04;100.00;101551.56;4983923;28;20540;-75
2023/02/14 04:49:24;;;;;;;109.55;64.65;;;;;;;-1.37;100.00;101676.25;4983570;28;20072;-75
2023/02/14 04:51:50;;;;;;;102.20;58.00;;;;;;;-1.84;100.00;101542.66;4986446;28;20046;-75
2023/02/14 04:54:15;;;;;;;116.70;61.97;;;;;;;-1.68;100.00;101558.34;4984650;28;20042;-75
2023/02/14 04:56:41;;;;;;;123.85;61.10;;;;;;;-0.74;100.00;101699.38;4984893;28;20484;-76
2023/02/14 04:59:06;;;;;;;94.45;53.88;;;;;;;-1.56;100.00;101584.03;4987030;28;20034;-75
2023/02/14 05:01:32;;;;;;;101.15;50.65;;;;;;;-1.59;100.00;101630.09;4975170;28;20038;-76
2023/02/14 05:03:57;;;;;;;102.90;55.38;;;;;;;-0.80;100.00;101716.13;4991461;28;20084;-75
2023/02/14 05:06:23;;;;;;;105.78;53.67;;;;;;;-0.95;100.00;101704.00;4982842;28;20105;-75
2023/02/14 05:08:48;;;;;;;101.47;54.42;;;;;;;-1.33;100.00;101629.34;4988283;28;20054;-77
2023/02/14 05:11:14;;;;;;;106.55;54.03;;;;;;;-0.94;100.00;101720.34;4985358;28;20438;-76
2023/02/14 05:13:39;;;;;;;97.82;53.30;;;;;;;-0.97;100.00;101672.09;4991233;28;20144;-77
2023/02/14 05:16:05;;;;;;;112.13;59.80;;;;;;;-1.71;100.00;101546.19;4990704;28;20051;-77
2023/02/14 05:18:31;;;;;;;102.72;50.97;;;;;;;-0.87;100.00;101682.25;4993600;28;20530;-77
2023/02/14 05:20:56;;;;;;;116.75;59.65;;;;;;;-1.16;100.00;101688.00;4990878;28;20050;-78
2023/02/14 05:23:22;;;;;;;114.53;56.88;;;;;;;-1.85;100.00;101559.78;4994545;28;20402;-78
2023/02/14 05:25:48;;;;;;;99.30;53.05;;;;;;;-1.73;100.00;101537.47;4999745;28;20080;-78
2023/02/14 05:28:15;;;;;;;90.20;50.75;;;;;;;-1.62;100.00;101558.75;4995575;28;20041;-77
2023/02/14 05:30:40;;;;;;;106.93;53.80;;;;;;;-1.55;100.00;101589.25;4993291;28;20105;-76
2023/02/14 05:33:06;;;;;;;95.78;53.65;;;;;;;-1.21;100.00;101663.63;5004460;28;20035;-78
2023/02/14 05:35:32;;;;;;;90.93;53.10;;;;;;;-2.06;100.00;101556.63;4998204;28;20486;-76
2023/02/14 05:37:58;;;;;;;95.00;58.90;;;;;;;-2.44;100.00;101443.44;5008732;28;20540;-78
2023/02/14 05:40:24;;;;;;;103.78;52.28;;;;;;;-1.40;100.00;101705.25;5005831;28;20049;-76
2023/02/14 05:42:54;;;;;;;97.55;57.95;;;;;;;-2.12;100.00;101587.03;5009660;28;20054;-77
2023/02/14 05:45:21;;;;;;;118.15;61.03;;;;;;;-1.54;100.00;101694.00;4985234;28;20418;-76
2023/02/14 05:47:47;;;;;;;109.35;61.95;;;;;;;-1.66;100.00;101695.72;4997518;28;20050;-76
2023/02/14 05:50:13;;;;;;;98.85;55.83;;;;;;;-1.48;100.00;101716.69;4982935;28;20062;-76
2023/02/14 05:52:40;;;;;;;111.00;64.18;;;;;;;-1.84;100.00;101569.28;4985605;28;20078;-77
2023/02/14 05:55:05;;;;;;;102.97;61.05;;;;;;;-1.17;100.00;101659.56;4989909;28;20069;-76
2023/02/14 05:57:31;;;;;;;103.63;55.38;;;;;;;-0.89;100.00;101665.78;4988824;28;20443;-77
2023/02/14 05:59:57;;;;;;;113.50;58.90;;;;;;;-0.98;100.00;101731.25;4989903;28;20449;-76
2023/02/14 06:02:23;;;;;;;97.22;59.55;;;;;;;-1.97;100.00;101579.50;4981643;28;20038;-76
2023/02/14 06:04:48;;;;;;;98.97;55.92;;;;;;;-1.29;100.00;101700.81;4985559;28;20142;-76
2023/02/14 06:07:14;;;;;;;98.05;52.90;;;;;;;-2.07;100.00;101583.09;4988724;28;20106;-77
2023/02/14 06:09:39;;;;;;;99.32;55.90;;;;;;;-2.03;100.00;101576.50;4985204;28;20776;-76
2023/02/14 06:12:05;;;;;;;113.18;59.60;;;;;;;-2.32;100.00;101534.22;4987788;28;20431;-74
2023/02/14 06:14:30;;;;;;;101.28;60.28;;;;;;;-1.45;100.00;101706.63;4983813;28;20426;-74
2023/02/14 06:16:56;;;;;;;116.68;60.78;;;;;;;-1.38;100.00;101702.75;4988728;28;20022;-74
2023/02/14 06:19:21;;;;;;;103.88;58.90;;;;;;;-1.09;100.00;101723.69;4986899;28;20045;-74
2023/02/14 06:21:47;;;;;;;129.52;60.53;;;;;;;-1.75;100.00;101638.47;4988961;28;20077;-75
2023/02/14 06:24:14;;;;;;;112.53;63.72;;;;;;;-1.44;100.00;101728.97;4989427;28;20126;-76
2023/02/14 06:26:39;;;;;;;114.70;55.17;;;;;;;-1.34;100.00;101713.38;4979447;28;20042;-77
2023/02/14 06:29:05;;;;;;;101.15;55.97;;;;;;;-1.60;100.00;101672.09;5001974;28;20125;-74
2023/02/14 06:31:31;;;;;;;119.13;60.33;;;;;;;-1.37;100.00;101701.97;4983902;28;20465;-74
2023/02/14 06:33:56;;;;;;;116.53;63.63;;;;;;;-1.02;100.00;101691.50;4987097;28;20080;-76
2023/02/14 06:36:23;;;;;;;125.88;68.78;;;;;;;-1.34;100.00;101583.75;4989816;28;20497;-74
2023/02/14 06:38:49;;;;;;;109.18;59.80;;;;;;;-0.76;100.00;101656.28;5005723;28;20049;-76
2023/02/14 06:41:16;;;;;;;119.75;70.50;;;;;;;-0.56;100.00;101698.81;5002541;28;20099;-75
2023/02/14 06:43:43;;;;;;;122.35;72.40;;;;;;;-1.15;100.00;101585.88;5007333;28;20061;-75
2023/02/14 06:46:09;;;;;;;151.50;71.10;;;;;;;-0.52;100.00;101701.69;4999904;28;20054;-76
2023/02/14 06:48:35;;;;;;;124.75;68.40;;;;;;;-0.70;100.00;101623.19;5008186;28;20556;-76
2023/02/14 06:51:00;;;;;;;121.97;73.90;;;;;;;-1.23;100.00;101590.53;5003493;28;20046;-75
2023/02/14 06:53:26;;;;;;;122.85;67.53;;;;;;;-1.12;100.00;101591.25;4987892;28;20034;-76
2023/02/14 06:55:52;;;;;;;128.32;73.05;;;;;;;-0.40;100.00;101683.53;4989516;28;20053;-75
2023/02/14 06:58:19;;;;;;;135.73;77.03;;;;;;;-0.08;100.00;101689.88;4993267;28;20046;-76
2023/02/14 07:00:46;;;;;;;125.10;73.43;;;;;;;-0.64;100.00;101569.44;4986903;28;20534;-76
2023/02/14 07:03:12;;;;;;;125.20;69.78;;;;;;;-0.08;100.00;101643.44;4977566;28;20093;-78
2023/02/14 07:05:38;;;;;;;126.47;71.38;;;;;;;-0.32;100.00;101581.78;4987538;28;20450;-78
2023/02/14 07:08:06;;;;;;;124.95;69.80;;;;;;;-0.08;100.00;101653.75;4986419;28;20065;-77
2023/02/14 07:10:32;;;;;;;129.25;78.88;;;;;;;-0.46;100.00;101542.25;4989180;28;20081;-77
2023/02/14 07:12:58;;;;;;;122.10;70.00;;;;;;;-0.33;100.00;101592.00;5001214;28;20042;-75
2023/02/14 07:15:24;;;;;;;139.00;70.22;;;;;;;0.65;100.00;101723.66;5001361;28;20050;-75
2023/02/14 07:17:49;;;;;;;131.52;70.63;;;;;;;-0.31;100.00;101572.38;4986120;28;20034;-75
2023/02/14 07:20:15;;;;;;;133.38;80.07;;;;;;;0.71;100.00;101706.84;4982465;28;20064;-75
2023/02/14 07:22:40;;;;;;;130.02;75.60;;;;;;;0.04;100.00;101560.75;4987682;28;20061;-75
2023/02/14 07:25:06;;;;;;;123.45;69.47;;;;;;;1.12;100.00;101736.84;4985389;28;20469;-77
2023/02/14 07:27:32;;;;;;;127.05;67.40;;;;;;;0.78;100.00;101693.50;4977873;28;20058;-78
2023/02/14 07:29:58;;;;;;;119.15;65.00;;;;;;;0.24;100.00;101578.34;4989088;28;20490;-77
2023/02/14 07:32:23;;;;;;;115.10;64.35;;;;;;;0.48;100.00;101598.69;4969317;28;20070;-80
2023/02/14 07:34:49;;;;;;;132.70;71.50;;;;;;;1.50;100.00;101738.22;4961897;28;20621;-82
2023/02/14 07:37:16;;;;;;;114.97;70.75;;;;;;;1.62;100.00;101726.00;4962631;28;20050;-79
2023/02/14 07:39:42;;;;;;;123.75;65.35;;;;;;;1.65;100.00;101709.75;4987017;28;20065;-79
2023/02/14 07:42:09;;;;;;;122.18;74.05;;;;;;;1.40;100.00;101610.06;5005974;28;20212;-77
2023/02/14 07:44:37;;;;;;;142.60;73.55;;;;;;;1.51;100.00;101638.25;5003883;28;20045;-76
2023/02/14 07:47:02;;;;;;;104.78;60.00;;;;;;;2.40;100.00;101777.78;4982969;28;20125;-79
2023/02/14 07:49:28;;;;;;;115.68;67.43;;;;;;;1.62;100.00;101626.81;4978371;28;20042;-79
2023/02/14 07:51:53;;;;;;;101.63;62.25;;;;;;;1.86;100.00;101642.78;4979089;28;20035;-77
2023/02/14 07:54:19;;;;;;;119.60;67.32;;;;;;;2.10;100.00;101658.75;4985236;28;20046;-76
2023/02/14 07:56:44;;;;;;;119.30;67.18;;;;;;;2.61;100.00;101734.91;4987066;28;20498;-76
2023/02/14 07:59:09;;;;;;;102.75;60.20;;;;;;;3.14;100.00;101790.41;4977817;28;20038;-75
2023/02/14 08:01:35;;;;;;;109.85;65.78;;;;;;;3.24;100.00;101818.59;4979860;28;20093;-77
2023/02/14 08:04:00;;;;;;;117.75;67.82;;;;;;;3.28;100.00;101820.56;4978669;28;20803;-75
2023/02/14 08:06:26;;;;;;;96.30;55.35;;;;;;;2.60;100.00;101698.53;4985195;28;20049;-74
2023/02/14 08:08:52;;;;;;;106.00;59.88;;;;;;;3.26;100.00;101774.59;5006953;28;20053;-78
2023/02/14 08:14:04;;;;;;;94.15;58.53;;;;;;;3.87;100.00;101818.34;4992726;28;20046;-76
2023/02/14 08:16:32;;;;;;;88.53;55.63;;;;;;;2.87;100.00;101709.47;5000513;28;20046;-75
2023/02/14 08:18:58;;;;;;;95.97;55.75;;;;;;;3.19;100.00;101723.22;5000611;28;20060;-78
2023/02/14 08:21:24;;;;;;;110.07;51.58;;;;;;;3.53;100.00;101747.44;4998981;28;20058;-76
2023/02/14 08:23:50;;;;;;;90.55;56.20;;;;;;;4.11;100.00;101855.00;4984432;28;20121;-79
2023/02/14 08:26:16;;;;;;;114.95;59.47;;;;;;;4.23;100.00;101837.41;4994871;28;20038;-78
2023/02/14 08:28:42;;;;;;;96.03;54.63;;;;;;;3.67;100.00;101761.09;5004593;28;20046;-76
2023/02/14 08:31:07;;;;;;;111.47;61.38;;;;;;;4.27;100.00;101859.25;5001539;28;20069;-78
2023/02/14 08:33:33;;;;;;;83.90;49.55;;;;;;;4.23;100.00;101881.59;4991677;28;20047;-74
2023/02/14 08:35:59;;;;;;;101.65;51.60;;;;;;;4.28;100.00;101872.31;4994415;28;20192;-75
2023/02/14 08:38:24;;;;;;;81.90;50.22;;;;;;;4.47;100.00;101861.09;4991310;28;20030;-77
2023/02/14 08:40:50;;;;;;;76.82;48.50;;;;;;;4.69;100.00;101888.16;5001161;28;20057;-76
2023/02/14 08:43:15;;;;;;;79.47;48.40;;;;;;;4.83;100.00;101871.47;5005712;28;20482;-76
2023/02/14 08:45:41;;;;;;;73.63;45.92;;;;;;;4.89;100.00;101889.06;4999710;28;20046;-76
2023/02/14 08:48:09;;;;;;;92.05;56.05;;;;;;;4.19;100.00;101714.31;5008094;28;20050;-78
2023/02/14 08:50:36;;;;;;;87.13;55.92;;;;;;;4.34;100.00;101727.09;5007138;28;20116;-81
2023/02/14 08:53:06;;;;;;;88.45;56.35;;;;;;;4.35;100.00;101757.44;4981022;28;20060;-77
2023/02/14 08:55:33;;;;;;;81.22;53.58;;;;;;;4.84;100.00;101806.50;4988914;28;20074;-75
2023/02/14 08:57:59;;;;;;;93.25;51.22;;;;;;;4.76;100.00;101760.22;4991423;28;20043;-76
2023/02/14 09:00:24;;;;;;;89.88;57.25;;;;;;;5.52;100.00;101863.31;4988524;28;20470;-81
2023/02/14 09:02:51;;;;;;;82.20;50.63;;;;;;;5.61;100.00;101884.53;4985325;28;20054;-79
2023/02/14 09:05:17;;;;;;;83.82;54.85;;;;;;;5.19;100.00;101804.63;4958538;28;20058;-77
2023/02/14 09:07:43;;;;;;;83.30;47.85;;;;;;;5.73;100.00;101864.22;4950187;28;20172;-79
2023/02/14 09:10:09;;;;;;;67.68;44.33;;;;;;;5.91;100.00;101890.19;4969925;28;20042;-77
2023/02/14 09:12:37;;;;;;;79.38;46.30;;;;;;;5.52;100.00;101803.44;4979689;28;20355;-77
2023/02/14 09:15:02;;;;;;;79.40;44.40;;;;;;;5.52;100.00;101778.28;4985046;28;20189;-77
2023/02/14 09:17:29;;;;;;;63.80;42.50;;;;;;;5.99;100.00;101907.06;4978627;28;20486;-81
2023/02/14 09:19:55;;;;;;;76.40;42.97;;;;;;;5.16;100.00;101837.44;4973677;28;20121;-77
2023/02/14 09:22:20;;;;;;;85.45;43.03;;;;;;;5.24;100.00;101818.75;4983302;28;20156;-80
2023/02/14 09:24:47;;;;;;;67.15;44.55;;;;;;;5.77;100.00;101878.28;4990747;28;20101;-75
2023/02/14 09:27:12;;;;;;;83.80;46.10;;;;;;;6.34;100.00;101912.88;4979101;28;20045;-81
2023/02/14 09:29:38;;;;;;;86.97;50.75;;;;;;;6.11;100.00;101865.91;4968084;28;21971;-84
2023/02/14 09:32:04;;;;;;;67.65;45.72;;;;;;;6.50;100.00;101915.28;4984284;28;20045;-75
2023/02/14 09:34:29;;;;;;;76.93;48.85;;;;;;;6.49;100.00;101923.06;4983892;28;20400;-78
2023/02/14 09:39:40;;;;;;;81.70;46.78;;;;;;;6.43;100.00;101894.13;5007765;28;20104;-77
2023/02/14 09:42:24;;;;;;;79.45;46.05;;;;;;;6.60;100.00;101905.22;5009773;28;20068;-76
2023/02/14 09:45:19;;;;;;;78.60;49.22;;;;;;;6.54;100.00;101891.09;5005560;28;20093;-76
2023/02/14 09:47:50;;;;;;;78.05;49.05;;;;;;;5.65;100.00;101845.69;4998261;28;20089;-77
2023/02/14 09:50:29;;;;;;;76.82;48.50;;;;;;;6.17;100.00;101906.06;4987863;28;20081;-76
2023/02/14 09:52:59;;;;;;;57.97;37.03;;;;;;;6.05;100.00;101877.78;4978994;28;20063;-78
2023/02/14 09:55:51;;;;;;;70.05;42.05;;;;;;;6.74;100.00;101885.78;4984439;28;20061;-80
2023/02/14 09:58:33;;;;;;;64.03;39.70;;;;;;;6.78;100.00;101895.53;4977704;28;20652;-77
2023/02/14 10:01:24;;;;;;;72.82;43.97;;;;;;;6.33;100.00;101791.19;4983849;28;20093;-78
2023/02/14 10:04:09;;;;;;;65.00;42.85;;;;;;;6.81;100.00;101903.47;4970401;28;20061;-77
2023/02/14 10:06:37;;;;;;;61.08;38.10;;;;;;;6.66;100.00;101888.09;4967243;28;20054;-82
2023/02/14 10:09:20;;;;;;;79.78;47.15;;;;;;;6.62;100.00;101861.84;4959844;28;20075;-78
2023/02/14 10:11:47;;;;;;;70.82;45.45;;;;;;;6.84;100.00;101889.69;4966421;28;20498;-76
2023/02/14 10:14:26;;;;;;;66.50;43.80;;;;;;;7.13;98.32;101867.28;4969300;28;20117;-73
2023/02/14 10:16:58;;;;;;;63.70;41.38;;;;;;;7.43;95.74;101885.81;4967013;28;20048;-76
2023/02/14 10:19:39;;;;;;;78.47;50.72;;;;;;;6.43;96.26;101764.63;4969620;28;20257;-77
2023/02/14 10:22:14;;;;;;;93.35;48.88;;;;;;;7.30;97.04;101865.28;4968626;28;20089;-77
2023/02/14 10:24:45;;;;;;;78.97;47.53;;;;;;;7.30;94.74;101824.41;4981747;28;20092;-80
2023/02/14 10:27:27;;;;;;;75.68;54.28;;;;;;;7.04;99.21;101860.00;4967900;28;20151;-79
2023/02/14 10:29:53;;;;;;;85.00;50.03;;;;;;;7.20;95.05;101770.09;4971658;28;20058;-78
2023/02/14 10:32:46;;;;;;;86.53;52.45;;;;;;;7.46;94.04;101824.97;4968378;28;20089;-80
2023/02/14 10:35:37;;;;;;;70.22;48.30;;;;;;;7.64;90.99;101861.31;4967744;28;20061;-78
2023/02/14 10:38:25;;;;;;;53.65;34.67;;;;;;;7.42;87.99;101825.69;4965065;28;20069;-76
2023/02/14 10:41:02;;;;;;;55.97;38.38;;;;;;;7.44;87.12;101848.41;4973503;28;20058;-80
2023/02/14 10:43:39;;;;;;;56.55;39.95;;;;;;;7.09;85.78;101807.97;4968684;28;20498;-76
2023/02/14 10:46:29;;;;;;;72.30;41.67;;;;;;;7.49;84.06;101739.78;4966987;28;20093;-79
2023/02/14 10:49:12;;;;;;;60.92;38.95;;;;;;;7.97;77.13;101838.06;4969856;28;20111;-75
2023/02/14 10:52:06;;;;;;;53.58;35.47;;;;;;;7.84;77.59;101810.59;4965210;28;20058;-75
2023/02/14 10:54:44;;;;;;;59.88;35.95;;;;;;;7.60;75.83;101823.72;4962459;28;20205;-75
2023/02/14 10:57:34;;;;;;;41.65;30.17;;;;;;;7.07;76.16;101727.03;4983881;28;20070;-75
2023/02/14 11:00:01;;;;;;;44.60;33.92;;;;;;;7.57;75.10;101829.72;4984218;28;20058;-78
2023/02/14 11:02:36;;;;;;;39.15;29.10;;;;;;;7.15;75.30;101728.16;4978815;28;20050;-77
2023/02/14 11:05:03;;;;;;;45.15;31.60;;;;;;;7.83;73.57;101782.72;4984668;28;20045;-78
2023/02/14 11:07:29;;;;;;;44.50;31.48;;;;;;;8.76;72.51;101812.69;4981914;28;20038;-76
2023/02/14 11:09:55;;;;;;;65.38;41.47;;;;;;;8.26;69.56;101669.03;4989449;28;20088;-76
2023/02/14 11:12:50;;;;;;;65.00;41.88;;;;;;;9.14;70.94;101805.06;4979819;28;20054;-78
2023/02/14 11:15:16;;;;;;;68.07;45.05;;;;;;;8.88;75.01;101808.69;4971204;28;20159;-78
2023/02/14 11:17:42;;;;;;;55.88;37.13;;;;;;;8.39;68.27;101702.56;4982155;28;20112;-77
2023/02/14 11:20:30;;;;;;;60.15;37.30;;;;;;;9.21;65.79;101694.41;5002253;28;20033;-74
2023/02/14 11:22:55;;;;;;;55.55;37.90;;;;;;;9.85;64.58;101769.41;4997869;28;20192;-76
2023/02/14 11:25:23;;;;;;;55.20;39.55;;;;;;;10.10;63.20;101799.75;4998134;28;20041;-75
2023/02/14 11:27:56;;;;;;;54.25;39.53;;;;;;;10.08;61.52;101804.06;5001453;28;20163;-76
2023/02/14 11:30:33;;;;;;;;;;;;;;;10.12;60.87;101797.16;4995565;28;20137;-76
2023/02/14 11:33:00;;;;;;;51.20;33.20;;;;;;;9.58;60.97;101711.94;4983983;28;20009;-75
2023/02/14 11:35:33;;;;;;;50.25;31.85;;;;;;;9.56;59.36;101694.44;4984560;28;20089;-77
2023/02/14 11:38:01;;;;;;;39.70;27.25;;;;;;;8.62;57.18;101610.81;4984215;28;20038;-75